WetterOnline ( https://www.wetteronline.de )

Wetter aktuell Abstatt

Aktuelles Wetter: Öhringen (277m)

6-stündlich | Neueste Meldungen
Ortszeit Temperatur Wetter
Do, 20.02. 13:00 8.8° C bedeckt
Do, 20.02. 7:00 4.5° C bedeckt
Do, 20.02. 1:00 3.6° C bewölkt
Mi, 19.02. 19:00 5.8° C bedeckt
Mi, 19.02. 13:00 5.1° C wolkig
Mi, 19.02. 7:00 6.2° C Sprühregen
Mi, 19.02. 1:00 6.2° C bewölkt
Di, 18.02. 19:00 6.9° C bedeckt
Ortszeit Temperatur Wetter
Do, 20.02. 14:30 9.4° C bedeckt
Do, 20.02. 14:20 9.4° C bedeckt
Do, 20.02. 14:10 9.0° C bedeckt
Do, 20.02. 14:00 8.8° C bedeckt
Do, 20.02. 13:50 8.8° C bedeckt
Do, 20.02. 13:40 8.8° C Sprühregen
Do, 20.02. 13:30 8.9° C bewölkt
Do, 20.02. 13:00 8.8° C bedeckt
Do, 20.02. 12:30 8.7° C bedeckt
Do, 20.02. 12:00 8.3° C bedeckt
Ortszeit Relative Feuchte Sichtweite
Do, 20.02. 13:00 67% 50 km
Do, 20.02. 7:00 79% 50 km
Do, 20.02. 1:00 72% 55 km
Mi, 19.02. 19:00 62% 50 km
Mi, 19.02. 13:00 78% 60 km
Mi, 19.02. 7:00 69% 65 km
Mi, 19.02. 1:00 65% 50 km
Di, 18.02. 19:00 61% 50 km
Ortszeit Relative Feuchte Sichtweite
Do, 20.02. 14:30 64% 55 km
Do, 20.02. 14:20 64% -
Do, 20.02. 14:10 66% -
Do, 20.02. 14:00 66% 50 km
Do, 20.02. 13:50 66% -
Do, 20.02. 13:40 66% -
Do, 20.02. 13:30 66% 65 km
Do, 20.02. 13:00 67% 50 km
Do, 20.02. 12:30 67% 60 km
Do, 20.02. 12:00 69% >70 km
Ortszeit Niederschlagsmenge Niederschlagsart
Do, 20.02. 13:00 0.1 l/m2 in 6 Std. Regen
Do, 20.02. 7:00 0.1 l/m2 in 12 Std. Regen
Do, 20.02. 1:00 0.0 l/m2 in 6 Std. -
Mi, 19.02. 19:00 5 l/m2 in 12 Std. Regen
Mi, 19.02. 13:00 5 l/m2 in 6 Std. Regen
Mi, 19.02. 7:00 0.3 l/m2 in 12 Std. Regen
Mi, 19.02. 1:00 0.0 l/m2 in 6 Std. -
Di, 18.02. 19:00 0.1 l/m2 in 12 Std. Regen
Ortszeit Niederschlagsmenge Niederschlagsart
Do, 20.02. 14:30 0.1 l/m2 in 1 Std. Schnee
Do, 20.02. 14:20 keine Meldung -
Do, 20.02. 14:10 keine Meldung -
Do, 20.02. 14:00 0.1 l/m2 in 1 Std. Regen
Do, 20.02. 13:50 keine Meldung -
Do, 20.02. 13:40 keine Meldung -
Do, 20.02. 13:30 0.0 l/m2 in 1 Std. -
Do, 20.02. 13:00 0.0 l/m2 in 1 Std. Regen
Do, 20.02. 12:30 0.0 l/m2 in 1 Std. -
Do, 20.02. 12:00 0.0 l/m2 in 1 Std. -
Ortszeit Stärke Spitze Richtung
km/h Bft. km/h Grad Sektor
Do, 20.02. 13:00 15 3 28 250° W
Do, 20.02. 7:00 7 2 22 190° S
Do, 20.02. 1:00 7 2 29 250° W
Mi, 19.02. 19:00 20 4 43 260° W
Mi, 19.02. 13:00 18 3 61 270° W
Mi, 19.02. 7:00 20 4 46 230° SW
Mi, 19.02. 1:00 17 3 31 230° SW
Di, 18.02. 19:00 11 2 57 230° SW
Ortszeit Stärke Spitze Richtung
km/h Bft. km/h Grad Sektor
Do, 20.02. 14:30 14 3 29 250° W
Do, 20.02. 14:20 14 3 - 250° W
Do, 20.02. 14:10 14 3 - 240° SW
Do, 20.02. 14:00 17 3 28 240° SW
Do, 20.02. 13:50 17 3 - 240° SW
Do, 20.02. 13:40 14 3 - 240° SW
Do, 20.02. 13:30 19 3 28 240° SW
Do, 20.02. 13:00 15 3 28 250° W
Do, 20.02. 12:30 11 2 29 240° SW
Do, 20.02. 12:00 17 3 28 230° SW
Ortszeit Untergrenze Bedeckung Gattung
total tief tief mittel hoch
Do, 20.02. 13:00 810 m 8/8 8/8 - - -
Do, 20.02. 7:00 780 m 8/8 8/8 - - -
Do, 20.02. 1:00 1440 m 8/8 4/8 - - -
Mi, 19.02. 19:00 1380 m 8/8 8/8 - - -
Mi, 19.02. 13:00 510 m 5/8 5/8 - - -
Mi, 19.02. 7:00 960 m 7/8 7/8 - - -
Mi, 19.02. 1:00 990 m 8/8 7/8 - - -
Di, 18.02. 19:00 1800 m 8/8 8/8 - - -
Ortszeit Bedeckungsgrad in Achtel und Wolkenuntergrenze
Do, 20.02. 14:30 8(1230m)
Do, 20.02. 14:20 8(1230m)
Do, 20.02. 14:10 6(1110m) 8(1320m)
Do, 20.02. 14:00 7(990m) 7(1230m) 8(1440m)
Do, 20.02. 13:50 7(990m) 7(1230m) 8(1440m)
Do, 20.02. 13:40 7(960m) 7(1260m) 8(1440m)
Do, 20.02. 13:30 7(1020m) 7(1260m) 8(1440m)
Do, 20.02. 13:00 2(810m) 6(1020m) 8(1410m)
Do, 20.02. 12:30 1(870m) 4(1080m) 8(1440m)
Do, 20.02. 12:00 8(1470m)
Ortszeit Luftdruck NN (hPa) Tendenz (hPa in 3 Std.)
Do, 20.02. 13:00 1021 - 1,9
Do, 20.02. 7:00 1023 - 0,7
Do, 20.02. 1:00 1026 - 0,5
Mi, 19.02. 19:00 1025 + 1,7
Mi, 19.02. 13:00 1022 + 2,2
Mi, 19.02. 7:00 1018 - 2,5
Mi, 19.02. 1:00 1023 - 2,5
Di, 18.02. 19:00 1027 - 0,4
Ortszeit Luftdruck NN (hPa) Tendenz (hPa in 3 Std.)
Do, 20.02. 14:30 1020 - 2,1
Do, 20.02. 14:20 1020 keine Meldung
Do, 20.02. 14:10 1020 keine Meldung
Do, 20.02. 14:00 1021 - 2,0
Do, 20.02. 13:50 1021 keine Meldung
Do, 20.02. 13:40 1021 keine Meldung
Do, 20.02. 13:30 1021 - 2,0
Do, 20.02. 13:00 1021 - 1,9
Do, 20.02. 12:30 1022 - 1,2
Do, 20.02. 12:00 1022 - 1,0
Ortszeit Schneehöhe (cm)
Do, 20.02. 13:00 0
Do, 20.02. 7:00 0
Do, 20.02. 1:00 0
Mi, 19.02. 19:00 0
Mi, 19.02. 13:00 0
Mi, 19.02. 7:00 0
Mi, 19.02. 1:00 0
Di, 18.02. 19:00 0
Ortszeit Schneehöhe (cm)
Do, 20.02. 14:30 0
Do, 20.02. 14:20 0
Do, 20.02. 14:10 0
Do, 20.02. 14:00 0
Do, 20.02. 13:50 0
Do, 20.02. 13:40 0
Do, 20.02. 13:30 0
Do, 20.02. 13:00 0
Do, 20.02. 12:30 0
Do, 20.02. 12:00 0
Link zu dieser Seite / Seite empfehlen

Das Wetter in ...